Latest Coastal Weather Observations for Burnie Port

IDT60701

Issued at 6:52 pm EDT Saturday 29 February 2020 (issued every 10 minutes, with the page automatically refreshed every 10 minutes)

About coastal observations | Map of coastal stations | Coastal observations for TAS | Marine services | Other Formats
Station Details ID: 091344 Name: BURNIE NTC AWS Lat: -41.05 Lon: 145.91 Height: 0.0 m
Data from the previous 72 hours. | See also: Recent months for locations in Tasmania
Date/Time
EDT
Wind Sea
Height
m
Swell Vis
km
Cloud Weather Temp
°C
Press
hPa
Rain since
9am
mm
Dir  Spd
kts
Gust
kts
Height
m
Period
s
Dir
29/06:30pm WNW 9 15 - - - - - - - 21.4 1010.4 -
29/06:00pm NW 13 17 - - - - - - - 20.1 1010.2 -
29/05:30pm NW 13 19 - - - - - - - 21.3 1010.0 -
29/05:00pm NW 14 20 - - - - - - - 20.9 1009.8 -
29/04:30pm NNW 16 23 - - - - - - - 20.2 1010.1 -
29/04:00pm NNW 21 24 - - - - - - - 18.0 1010.2 -
29/03:30pm NNW 20 25 - - - - - - - 18.0 1010.6 -
29/03:00pm NNW 20 23 - - - - - - - 17.6 1011.0 -
29/02:30pm NNW 18 22 - - - - - - - 17.5 1011.3 -
29/02:00pm NW 14 18 - - - - - - - 19.2 1011.7 -
29/01:30pm WNW 12 21 - - - - - - - 19.3 1011.6 -
29/01:00pm NW 14 19 - - - - - - - 18.8 1012.0 -
29/12:30pm NW 13 18 - - - - - - - 19.1 1012.4 -
29/12:00pm NW 14 17 - - - - - - - 17.7 1012.7 -
29/11:30am NW 14 18 - - - - - - - 17.3 1012.7 -
29/11:00am NW 11 17 - - - - - - - 17.8 1012.9 -
29/10:30am WNW 11 17 - - - - - - - 17.2 1013.2 -
29/10:00am NW 13 16 - - - - - - - 15.5 1013.1 -
29/09:30am WNW 8 14 - - - - - - - 16.2 1013.1 -
29/09:00am WNW 7 13 - - - - - - - 15.4 1013.3 -
29/08:30am WNW 6 11 - - - - - - - 14.7 1013.2 -
29/08:00am WNW 7 12 - - - - - - - 14.6 1013.2 -
29/07:30am WNW 5 9 - - - - - - - 14.3 1013.1 -
29/07:00am WNW 5 11 - - - - - - - 14.2 1012.7 -
29/06:30am WNW 5 9 - - - - - - - 13.9 1012.5 -
29/06:00am WNW 5 9 - - - - - - - 13.8 1012.3 -
29/05:30am WNW 7 12 - - - - - - - 13.8 1012.3 -
29/05:00am WNW 5 9 - - - - - - - 13.7 1012.5 -
29/04:30am WNW 3 7 - - - - - - - 13.9 1012.8 -
29/04:00am WNW 6 10 - - - - - - - 13.9 1012.9 -
29/03:30am WNW 5 10 - - - - - - - 14.1 1012.8 -
29/03:00am WNW 7 11 - - - - - - - 13.9 1013.0 -
29/02:30am WNW 6 12 - - - - - - - 14.1 1013.1 -
29/02:00am WNW 6 11 - - - - - - - 14.3 1013.2 -
29/01:30am WNW 6 11 - - - - - - - 14.4 1013.2 -
29/01:00am W 5 10 - - - - - - - 14.6 1013.3 -
29/12:30am W 4 10 - - - - - - - 14.4 1013.2 -
29/12:00am W 4 9 - - - - - - - 14.4 1013.1 -
 
Date/Time
EDT
Wind Sea
Height
m
Swell Vis
km
Cloud Weather Temp
°C
Press
hPa
Rain since
9am
mm
Dir  Spd
kts
Gust
kts
Height
m
Period
s
Dir
28/11:30pm WNW 5 9 - - - - - - - 14.5 1013.3 -
28/11:00pm W 8 15 - - - - - - - 14.8 1013.4 -
28/10:30pm WNW 6 12 - - - - - - - 14.9 1013.3 -
28/10:00pm WNW 6 12 - - - - - - - 15.3 1013.1 -
28/09:30pm WNW 4 7 - - - - - - - 15.7 1013.0 -
28/09:00pm W 5 9 - - - - - - - 15.8 1012.7 -
28/08:30pm W 4 11 - - - - - - - 16.3 1012.3 -
28/08:00pm W 3 7 - - - - - - - 16.9 1011.6 -
28/07:30pm W 8 15 - - - - - - - 17.2 1011.5 -
28/07:00pm W 8 17 - - - - - - - 18.1 1011.0 -
28/06:30pm W 9 17 - - - - - - - 18.2 1010.8 -
28/06:00pm W 9 18 - - - - - - - 18.8 1010.9 -
28/05:30pm WNW 11 20 - - - - - - - 18.5 1010.6 -
28/05:00pm W 9 18 - - - - - - - 19.0 1010.4 -
28/04:30pm W 10 20 - - - - - - - 18.6 1010.3 -
28/04:00pm WSW 9 17 - - - - - - - 18.4 1010.4 -
28/03:30pm WSW 9 17 - - - - - - - 18.9 1010.5 -
28/03:00pm WSW 10 20 - - - - - - - 18.0 1010.7 -
28/02:30pm WSW 7 14 - - - - - - - 17.6 1010.8 -
28/02:00pm WSW 8 16 - - - - - - - 17.7 1010.9 -
28/01:30pm SW 9 16 - - - - - - - 17.6 1011.0 -
28/01:00pm W 9 19 - - - - - - - 17.3 1011.0 -
28/12:30pm WSW 10 24 - - - - - - - 16.7 1011.3 -
28/12:00pm WSW 10 19 - - - - - - - 16.3 1011.3 -
28/11:30am WSW 7 13 - - - - - - - 15.7 1011.1 -
28/11:00am SW 10 20 - - - - - - - 15.0 1010.9 -
28/10:30am WSW 9 18 - - - - - - - 14.8 1010.8 -
28/10:00am W 6 11 - - - - - - - 14.1 1010.2 -
28/09:30am W 3 8 - - - - - - - 13.2 1009.7 -
28/09:00am NW 7 12 - - - - - - - 13.0 1009.7 -
28/08:30am WNW 7 12 - - - - - - - 12.7 1009.3 -
28/08:00am NW 5 10 - - - - - - - 12.8 1008.9 -
28/07:30am WNW 4 8 - - - - - - - 12.1 1008.3 -
28/07:00am WNW 4 8 - - - - - - - 12.1 1008.1 -
28/06:30am WNW 4 8 - - - - - - - 12.1 1007.3 -
28/06:00am WNW 3 7 - - - - - - - 12.3 1006.9 -
28/05:30am W 4 10 - - - - - - - 12.4 1006.5 -
28/05:00am WSW 7 14 - - - - - - - 12.6 1005.8 -
28/04:30am WNW 6 13 - - - - - - - 12.8 1005.3 -
28/04:00am W 7 15 - - - - - - - 12.6 1005.0 -
28/03:30am W 3 10 - - - - - - - 12.7 1004.6 -
28/03:00am W 4 12 - - - - - - - 12.7 1004.3 -
28/02:30am W 4 14 - - - - - - - 12.6 1004.2 -
28/02:00am WNW 6 11 - - - - - - - 12.6 1004.1 -
28/01:30am WNW 6 14 - - - - - - - 12.7 1003.9 -
28/01:00am W 12 24 - - - - - - - 12.8 1004.0 -
28/12:30am W 9 19 - - - - - - - 12.8 1003.5 -
28/12:00am W 9 17 - - - - - - - 12.5 1003.6 -
 
Date/Time
EDT
Wind Sea
Height
m
Swell Vis
km
Cloud Weather Temp
°C
Press
hPa
Rain since
9am
mm
Dir  Spd
kts
Gust
kts
Height
m
Period
s
Dir
27/11:30pm W 12 21 - - - - - - - 12.8 1003.6 -
27/11:00pm W 10 17 - - - - - - - 13.0 1003.3 -
27/10:30pm W 11 22 - - - - - - - 13.2 1003.6 -
27/10:00pm WNW 10 20 - - - - - - - 13.3 1003.5 -
27/09:30pm W 9 21 - - - - - - - 13.2 1003.0 -
27/09:00pm W 10 20 - - - - - - - 13.9 1002.9 -
27/08:30pm W 11 25 - - - - - - - 14.4 1002.6 -
27/08:00pm W 15 25 - - - - - - - 14.7 1002.2 -
27/07:57pm W 15 25 - - - - - - - 14.7 1002.2 -
27/07:30pm W 9 17 - - - - - - - 15.0 1002.0 -
27/07:00pm W 14 23 - - - - - - - 15.4 1001.8 -
27/06:44pm WNW 15 27 - - - - - - - 15.4 1001.8 -
27/06:30pm W 14 23 - - - - - - - 15.6 1001.7 -
27/06:03pm W 15 26 - - - - - - - 15.5 1001.8 -
27/06:00pm W 15 25 - - - - - - - 15.7 1001.6 -
27/05:30pm W 15 27 - - - - - - - 16.4 1001.5 -
27/05:00pm WNW 16 29 - - - - - - - 16.6 1001.3 -
27/04:41pm W 15 29 - - - - - - - 17.3 1000.9 -
27/04:30pm W 12 21 - - - - - - - 17.5 1001.2 -
27/04:00pm W 17 29 - - - - - - - 16.5 1001.4 -
27/03:31pm WNW 15 27 - - - - - - - 17.2 1001.0 -
27/03:30pm WNW 14 26 - - - - - - - 17.4 1001.1 -
27/03:25pm WNW 15 26 - - - - - - - 16.9 1001.3 -
27/03:00pm WNW 17 26 - - - - - - - 16.4 1001.7 -
27/02:30pm WNW 15 26 - - - - - - - 17.5 1001.8 -
27/02:00pm WNW 17 28 - - - - - - - 17.1 1002.0 -
27/01:44pm WNW 15 26 - - - - - - - 16.8 1001.7 -
27/01:30pm WNW 14 24 - - - - - - - 16.8 1002.3 -
27/01:06pm W 15 26 - - - - - - - 16.7 1002.9 -
27/01:00pm WNW 13 24 - - - - - - - 16.5 1002.9 -
27/12:30pm W 12 24 - - - - - - - 15.7 1003.3 -
27/12:17pm WNW 15 25 - - - - - - - 16.2 1003.4 -
27/12:00pm WNW 11 24 - - - - - - - 16.6 1003.9 -
27/11:38am NW 18 28 - - - - - - - 15.6 1004.1 -
27/11:30am NW 18 25 - - - - - - - 14.7 1003.9 -
27/11:00am WNW 9 17 - - - - - - - 15.2 1004.2 -
27/10:30am W 11 22 - - - - - - - 13.9 1004.8 -
27/10:00am WNW 11 21 - - - - - - - 15.0 1004.7 -
27/09:30am WNW 12 23 - - - - - - - 14.3 1004.7 -
27/09:00am WNW 11 17 - - - - - - - 13.9 1005.0 -
27/08:30am WNW 8 13 - - - - - - - 12.9 1005.2 -
27/08:00am WNW 11 19 - - - - - - - 12.3 1005.2 -
27/07:30am WNW 9 17 - - - - - - - 12.3 1005.3 -
27/07:00am WNW 9 15 - - - - - - - 12.2 1005.1 -
27/06:30am WNW 12 20 - - - - - - - 12.5 1005.2 -
27/06:00am WNW 7 12 - - - - - - - 12.8 1005.2 -
27/05:30am WNW 8 16 - - - - - - - 12.8 1005.3 -
27/05:00am W 8 12 - - - - - - - 12.4 1005.5 -
27/04:30am W 5 10 - - - - - - - 12.1 1005.9 -
27/04:00am W 5 9 - - - - - - - 12.2 1006.0 -
27/03:30am WNW 6 11 - - - - - - - 12.0 1006.2 -
27/03:00am W 4 9 - - - - - - - 11.7 1006.7 -
27/02:30am W 2 5 - - - - - - - 11.7 1006.9 -
27/02:00am WNW 5 9 - - - - - - - 11.6 1007.5 -
27/01:30am WNW 5 9 - - - - - - - 11.5 1007.9 -
27/01:00am W 4 9 - - - - - - - 11.6 1008.2 -
27/12:30am WNW 4 8 - - - - - - - 11.3 1008.2 -
27/12:00am W 6 10 - - - - - - - 11.6 1008.5 -
 
Date/Time
EDT
Wind Sea
Height
m
Swell Vis
km
Cloud Weather Temp
°C
Press
hPa
Rain since
9am
mm
Dir  Spd
kts
Gust
kts
Height
m
Period
s
Dir
26/11:30pm WNW 6 10 - - - - - - - 11.5 1008.6 -
26/11:00pm WNW 6 11 - - - - - - - 11.5 1008.9 -
26/10:30pm W 3 7 - - - - - - - 11.8 1009.1 -
26/10:00pm W 1 4 - - - - - - - 12.1 1009.2 -
26/09:30pm WSW 4 11 - - - - - - - 12.3 1009.1 -
26/09:00pm WNW 5 10 - - - - - - - 12.8 1008.7 -
26/08:30pm W 8 15 - - - - - - - 13.2 1008.5 -
26/08:00pm WSW 9 16 - - - - - - - 13.7 1008.1 -
26/07:30pm WSW 10 18 - - - - - - - 14.2 1007.6 -
26/07:00pm W 9 18 - - - - - - - 14.3 1007.4 -

Other formats

Comma delimited format used in spreadsheet applications
http://www.bom.gov.au/fwo/IDT60701/IDT60701.95963.axf

JavaScript Object Notation format (JSON) in row-major order
http://www.bom.gov.au/fwo/IDT60701/IDT60701.95963.json

Data quality

Most of these data are generated automatically and are frequently updated. Quality checks on data are not normally performed. It is possible for incorrect values to appear. Refer to information at About Latest Weather Observations and please check the disclaimer before using these data.